Time;durP1;ratioP1;P1;durP2;ratioP2;P2;SDS_P1;SDS_P2;PMS_P1;PMS_P2;Temp;Humidity;BMP_temperature;BMP_pressure;BME280_temperature;BME280_humidity;BME280_pressure;Samples;Min_cycle;Max_cycle;Signal;HPM_P1;HPM_P2
2024/03/01 00:00:19;;;;;;;21.63;12.48;;;3.90;88.00;;;;;;5072364;28;20032;-85
2024/03/01 00:02:45;;;;;;;20.08;12.30;;;4.00;88.00;;;;;;5089716;28;20036;-88
2024/03/01 00:05:11;;;;;;;19.05;10.95;;;4.00;88.00;;;;;;5092816;28;20066;-86
2024/03/01 00:07:37;;;;;;;16.17;10.57;;;4.00;88.10;;;;;;5090639;28;20016;-86
2024/03/01 00:10:03;;;;;;;18.63;11.05;;;4.00;87.90;;;;;;5093190;28;20032;-85
2024/03/01 00:12:29;;;;;;;19.05;11.57;;;4.10;87.80;;;;;;5089499;28;20034;-89
2024/03/01 00:14:54;;;;;;;17.33;10.75;;;4.10;87.80;;;;;;5084945;28;20381;-87
2024/03/01 00:17:20;;;;;;;19.83;11.63;;;4.10;87.90;;;;;;5090632;28;20129;-87
2024/03/01 00:19:46;;;;;;;20.35;11.98;;;4.10;88.00;;;;;;5092624;28;20500;-89
2024/03/01 00:22:12;;;;;;;20.83;11.02;;;4.10;88.20;;;;;;5086675;28;20051;-87
2024/03/01 00:24:40;;;;;;;16.08;10.63;;;4.10;88.20;;;;;;5098570;28;20508;-88
2024/03/01 00:27:07;;;;;;;21.40;10.27;;;4.20;88.40;;;;;;5105443;28;20044;-87
2024/03/01 00:29:34;;;;;;;18.73;11.30;;;4.10;88.30;;;;;;5101415;28;20020;-90
2024/03/01 00:32:00;;;;;;;20.25;11.27;;;4.20;88.50;;;;;;5106066;28;20028;-88
2024/03/01 00:34:26;;;;;;;22.17;12.18;;;4.10;88.80;;;;;;5106575;28;20028;-87
2024/03/01 00:36:52;;;;;;;18.85;10.55;;;4.20;89.00;;;;;;5095739;28;20040;-89
2024/03/01 00:39:17;;;;;;;16.30;10.20;;;4.10;89.10;;;;;;5091709;28;20028;-87
2024/03/01 00:41:43;;;;;;;19.70;11.18;;;4.10;89.20;;;;;;5092108;28;20073;-88
2024/03/01 00:44:09;;;;;;;19.92;10.60;;;4.10;89.40;;;;;;5092082;28;20459;-89
2024/03/01 00:46:36;;;;;;;15.63;10.20;;;4.10;89.70;;;;;;5094150;28;20087;-87
2024/03/01 00:49:02;;;;;;;20.52;10.23;;;4.10;90.00;;;;;;5093691;28;20477;-88
2024/03/01 00:51:28;;;;;;;18.55;11.52;;;4.10;90.10;;;;;;5089431;28;20027;-89
2024/03/01 00:53:54;;;;;;;20.05;10.02;;;4.00;90.20;;;;;;5093525;28;20032;-87
2024/03/01 00:56:20;;;;;;;16.77;10.70;;;4.00;90.30;;;;;;5092594;28;20477;-90
2024/03/01 00:58:46;;;;;;;16.25;10.27;;;4.00;90.30;;;;;;5091680;28;20035;-89
2024/03/01 01:01:13;;;;;;;15.20;10.95;;;4.10;90.40;;;;;;5091064;28;20489;-87
2024/03/01 01:03:39;;;;;;;20.10;11.07;;;4.10;90.50;;;;;;5086579;28;20024;-88
2024/03/01 01:06:05;;;;;;;20.95;11.68;;;4.10;90.60;;;;;;5105564;28;20033;-90
2024/03/01 01:08:31;;;;;;;15.18;11.00;;;4.10;90.60;;;;;;5104119;28;20035;-88
2024/03/01 01:10:56;;;;;;;21.02;12.73;;;4.10;90.70;;;;;;5098423;28;20078;-88
2024/03/01 01:13:23;;;;;;;18.77;11.70;;;4.10;90.70;;;;;;5085144;28;20024;-88
2024/03/01 01:15:48;;;;;;;17.15;10.68;;;4.10;90.80;;;;;;5101603;28;20107;-88
2024/03/01 01:18:16;;;;;;;22.88;11.85;;;4.10;90.80;;;;;;5101310;28;20062;-89
2024/03/01 01:20:42;;;;;;;18.42;12.88;;;4.10;90.90;;;;;;5100199;28;20052;-88
2024/03/01 01:23:08;;;;;;;21.70;11.57;;;4.10;91.10;;;;;;5106542;28;20028;-87
2024/03/01 01:25:34;;;;;;;17.40;12.35;;;4.00;91.20;;;;;;5115789;28;20052;-88
2024/03/01 01:28:00;;;;;;;26.40;12.65;;;4.00;91.40;;;;;;5117261;28;20020;-88
2024/03/01 01:30:26;;;;;;;16.65;11.88;;;4.00;91.60;;;;;;5108660;28;20118;-88
2024/03/01 01:32:52;;;;;;;22.70;13.02;;;4.00;91.60;;;;;;5097596;28;20046;-87
2024/03/01 01:35:17;;;;;;;18.45;13.32;;;4.00;91.70;;;;;;5089671;28;20023;-87
2024/03/01 01:37:43;;;;;;;16.52;12.82;;;3.90;91.90;;;;;;5102889;28;20381;-88
2024/03/01 01:40:11;;;;;;;21.40;12.95;;;4.00;92.00;;;;;;5100820;28;20024;-87
2024/03/01 01:42:38;;;;;;;18.92;13.35;;;4.00;92.20;;;;;;5100579;28;20027;-86
2024/03/01 01:45:05;;;;;;;21.77;13.60;;;4.00;92.60;;;;;;5101480;28;20024;-89
2024/03/01 01:47:32;;;;;;;21.30;14.68;;;3.90;92.50;;;;;;5101128;28;20103;-86
2024/03/01 01:49:58;;;;;;;19.97;14.17;;;3.90;92.70;;;;;;5092388;28;20020;-87
2024/03/01 01:52:26;;;;;;;23.48;15.85;;;3.90;92.80;;;;;;5096972;28;20478;-87
2024/03/01 01:54:53;;;;;;;23.65;15.82;;;3.80;93.00;;;;;;5098480;28;20480;-88
2024/03/01 01:57:19;;;;;;;22.00;14.90;;;3.80;93.20;;;;;;5102996;28;20012;-87
2024/03/01 01:59:46;;;;;;;24.95;17.10;;;3.70;93.30;;;;;;5102287;28;20024;-87
2024/03/01 02:02:12;;;;;;;22.10;15.52;;;3.70;93.70;;;;;;5106531;28;20095;-88
2024/03/01 02:04:40;;;;;;;26.48;15.27;;;3.70;93.50;;;;;;5102378;28;20036;-88
2024/03/01 02:07:05;;;;;;;23.42;17.35;;;3.80;93.60;;;;;;5103086;28;20362;-86
2024/03/01 02:09:31;;;;;;;23.23;16.30;;;3.70;93.60;;;;;;5099657;28;20035;-87
2024/03/01 02:11:57;;;;;;;23.00;15.18;;;3.70;93.70;;;;;;5099457;28;20023;-85
2024/03/01 02:14:23;;;;;;;27.77;15.65;;;3.70;93.80;;;;;;5099636;28;20091;-86
2024/03/01 02:16:50;;;;;;;31.42;15.55;;;3.60;93.90;;;;;;5089380;28;20492;-88
2024/03/01 02:19:17;;;;;;;24.52;14.30;;;3.60;94.00;;;;;;5094053;28;20089;-87
2024/03/01 02:21:55;;;;;;;;;;;3.70;94.00;;;;;;5102980;28;20020;-88
2024/03/01 02:24:21;;;;;;;23.08;13.85;;;3.70;93.80;;;;;;5090379;28;19911;-87
2024/03/01 02:26:47;;;;;;;20.33;15.10;;;3.70;94.00;;;;;;5098868;28;20107;-85
2024/03/01 02:29:13;;;;;;;22.90;15.60;;;3.60;94.00;;;;;;5098839;28;20467;-86
2024/03/01 02:31:39;;;;;;;21.02;14.05;;;3.60;94.10;;;;;;5098213;28;20075;-87
2024/03/01 02:34:05;;;;;;;21.23;16.77;;;3.70;94.20;;;;;;5092441;28;20044;-85
2024/03/01 02:36:30;;;;;;;24.67;15.55;;;3.70;94.30;;;;;;5090106;28;20025;-87
2024/03/01 02:38:56;;;;;;;29.67;15.43;;;3.70;94.30;;;;;;5089732;28;20040;-86
2024/03/01 02:41:22;;;;;;;28.40;15.85;;;3.70;94.40;;;;;;5095350;28;20020;-86
2024/03/01 02:43:48;;;;;;;27.13;16.50;;;3.80;94.40;;;;;;5093910;28;20047;-86
2024/03/01 02:46:14;;;;;;;29.77;16.65;;;3.70;94.30;;;;;;5093206;28;20023;-87
2024/03/01 02:48:39;;;;;;;22.90;14.93;;;3.80;94.40;;;;;;5093878;28;20026;-87
2024/03/01 02:51:05;;;;;;;23.33;14.57;;;3.80;94.40;;;;;;5095606;28;20560;-87
2024/03/01 02:53:31;;;;;;;23.10;15.10;;;3.80;94.40;;;;;;5087913;28;20038;-88
2024/03/01 02:55:57;;;;;;;23.42;14.88;;;3.80;94.50;;;;;;5095009;28;20095;-86
2024/03/01 02:58:26;;;;;;;30.70;15.43;;;3.70;94.60;;;;;;5092058;28;20023;-89
2024/03/01 03:00:52;;;;;;;24.98;16.50;;;3.70;94.70;;;;;;5078632;28;20392;-83
2024/03/01 03:03:17;;;;;;;25.50;15.85;;;3.70;94.80;;;;;;5084113;28;20021;-86
2024/03/01 03:05:44;;;;;;;21.50;15.48;;;3.70;94.80;;;;;;5078374;28;20020;-87
2024/03/01 03:08:09;;;;;;;23.35;15.52;;;3.80;94.80;;;;;;5100077;28;20024;-87
2024/03/01 03:10:35;;;;;;;27.42;17.80;;;3.80;94.90;;;;;;5099560;28;20076;-90
2024/03/01 03:13:03;;;;;;;22.30;15.60;;;3.80;94.90;;;;;;5099172;28;20120;-89
2024/03/01 03:15:38;;;;;;;;;;;3.80;94.90;;;;;;5093008;28;20131;-89
2024/03/01 03:18:04;;;;;;;23.90;15.93;;;3.70;94.70;;;;;;5084615;28;19911;-88
2024/03/01 03:20:35;;;;;;;24.35;17.13;;;3.70;94.90;;;;;;5093362;28;20029;-90
2024/03/01 03:23:02;;;;;;;24.88;15.43;;;3.60;95.10;;;;;;5093232;28;20032;-88
2024/03/01 03:25:28;;;;;;;30.55;17.25;;;3.70;95.10;;;;;;5091651;28;20031;-91
2024/03/01 03:27:54;;;;;;;25.77;16.75;;;3.70;95.20;;;;;;5099190;28;20383;-89
2024/03/01 03:30:20;;;;;;;25.77;18.13;;;3.70;95.30;;;;;;5103014;28;20055;-89
2024/03/01 03:32:46;;;;;;;30.13;16.85;;;3.70;95.40;;;;;;5089846;28;20024;-88
2024/03/01 03:35:12;;;;;;;28.40;17.67;;;3.70;95.50;;;;;;5093524;28;20446;-90
2024/03/01 03:37:38;;;;;;;25.88;16.63;;;3.70;95.50;;;;;;5098295;28;20078;-89
2024/03/01 03:40:14;;;;;;;23.33;15.65;;;3.80;95.50;;;;;;5101979;28;20024;-89
2024/03/01 03:42:43;;;;;;;24.02;16.67;;;3.80;95.50;;;;;;5117875;28;20106;-89
2024/03/01 03:45:12;;;;;;;29.92;18.35;;;3.80;95.50;;;;;;5114739;28;20020;-88
2024/03/01 03:47:38;;;;;;;31.23;18.42;;;3.80;95.60;;;;;;5107761;28;20012;-88
2024/03/01 03:50:07;;;;;;;25.63;17.80;;;3.80;95.60;;;;;;5088082;28;20571;-89
2024/03/01 03:52:34;;;;;;;26.67;17.35;;;3.80;95.70;;;;;;5085527;28;20016;-90
2024/03/01 03:55:01;;;;;;;26.88;16.73;;;3.70;95.70;;;;;;5097902;28;20069;-90
2024/03/01 03:57:27;;;;;;;26.47;17.97;;;3.70;95.80;;;;;;5096335;28;20031;-89
2024/03/01 03:59:52;;;;;;;23.92;17.42;;;3.70;95.90;;;;;;5095165;28;20028;-88
2024/03/01 04:02:18;;;;;;;32.03;17.75;;;3.60;95.90;;;;;;5095000;28;20016;-90
2024/03/01 04:04:44;;;;;;;33.33;19.95;;;3.60;96.00;;;;;;5100566;28;20043;-88
2024/03/01 04:07:10;;;;;;;25.02;18.90;;;3.60;96.20;;;;;;5097981;28;20179;-88
2024/03/01 04:09:36;;;;;;;37.00;20.98;;;3.60;96.20;;;;;;5095212;28;20120;-89
2024/03/01 04:12:05;;;;;;;31.77;21.17;;;3.60;96.30;;;;;;5095215;28;20024;-90
2024/03/01 04:14:32;;;;;;;30.42;19.70;;;3.60;96.40;;;;;;5093390;28;20026;-90
2024/03/01 04:16:58;;;;;;;30.13;19.23;;;3.60;96.40;;;;;;5092742;28;20107;-88
2024/03/01 04:19:24;;;;;;;25.85;18.88;;;3.60;96.40;;;;;;5094039;28;20040;-89
2024/03/01 04:21:52;;;;;;;26.85;18.88;;;3.60;96.40;;;;;;5093400;28;20175;-90
2024/03/01 04:24:18;;;;;;;31.75;20.23;;;3.60;96.50;;;;;;5090470;28;20489;-89
2024/03/01 04:26:45;;;;;;;31.75;20.02;;;3.60;96.50;;;;;;5087490;28;20376;-89
2024/03/01 04:29:10;;;;;;;35.40;22.08;;;3.60;96.60;;;;;;5096583;28;20085;-89
2024/03/01 04:31:38;;;;;;;36.28;20.33;;;3.60;96.60;;;;;;5106939;28;20020;-88
2024/03/01 04:34:06;;;;;;;31.80;19.80;;;3.60;96.60;;;;;;5088702;28;20017;-87
2024/03/01 04:36:32;;;;;;;31.25;19.15;;;3.70;96.70;;;;;;5099390;28;20024;-89
2024/03/01 04:38:58;;;;;;;36.20;20.10;;;3.70;96.60;;;;;;5099004;28;20060;-90
2024/03/01 04:41:24;;;;;;;28.17;17.63;;;3.70;96.60;;;;;;5112723;28;20115;-86
2024/03/01 04:43:50;;;;;;;31.77;20.15;;;3.60;96.70;;;;;;5098181;28;20032;-88
2024/03/01 04:46:16;;;;;;;34.20;19.40;;;3.70;96.70;;;;;;5091851;28;20052;-88
2024/03/01 04:48:42;;;;;;;26.05;18.67;;;3.70;96.70;;;;;;5097753;28;20074;-87
2024/03/01 04:51:14;;;;;;;26.52;18.20;;;3.70;96.70;;;;;;5086216;28;20028;-87
2024/03/01 04:53:40;;;;;;;25.67;17.10;;;3.70;96.80;;;;;;5100238;28;20389;-89
2024/03/01 04:56:10;;;;;;;37.40;18.67;;;3.70;96.80;;;;;;5099617;28;20028;-88
2024/03/01 04:59:05;;;;;;;28.73;18.08;;;3.80;96.90;;;;;;5085690;28;20016;-89
2024/03/01 05:01:31;;;;;;;27.30;16.60;;;3.80;96.80;;;;;;5084201;28;20039;-89
2024/03/01 05:04:08;;;;;;;29.80;17.95;;;3.80;96.80;;;;;;5089065;28;20515;-90
2024/03/01 05:06:37;;;;;;;28.52;18.85;;;3.80;96.80;;;;;;5093728;28;20418;-90
2024/03/01 05:09:06;;;;;;;29.63;18.77;;;3.80;96.80;;;;;;5108001;28;20036;-88
2024/03/01 05:11:35;;;;;;;29.63;20.13;;;3.80;96.80;;;;;;5105152;28;20112;-88
2024/03/01 05:14:04;;;;;;;27.45;18.20;;;3.80;96.90;;;;;;5090032;28;20645;-89
2024/03/01 05:16:30;;;;;;;28.52;20.00;;;3.80;96.90;;;;;;5084688;28;20024;-89
2024/03/01 05:18:56;;;;;;;28.15;19.55;;;3.80;97.00;;;;;;5095513;28;20029;-90
2024/03/01 05:21:22;;;;;;;32.55;20.00;;;3.90;97.00;;;;;;5090642;28;20032;-88
2024/03/01 05:23:49;;;;;;;28.02;19.05;;;3.90;97.00;;;;;;5098117;28;20396;-88
2024/03/01 05:26:16;;;;;;;30.80;19.73;;;3.90;97.30;;;;;;5092212;28;20049;-87
2024/03/01 05:28:42;;;;;;;27.65;18.67;;;3.90;97.10;;;;;;5092381;28;20024;-86
2024/03/01 05:31:08;;;;;;;26.13;16.42;;;3.90;97.10;;;;;;5094986;28;20030;-87
2024/03/01 05:33:34;;;;;;;28.95;18.38;;;3.90;97.10;;;;;;5090867;28;20028;-88
2024/03/01 05:36:01;;;;;;;29.10;20.25;;;3.90;97.20;;;;;;5084004;28;20051;-88
2024/03/01 05:38:27;;;;;;;27.73;18.83;;;3.90;97.20;;;;;;5082941;28;20417;-87
2024/03/01 05:40:53;;;;;;;26.17;17.45;;;3.90;97.20;;;;;;5087676;28;20028;-87
2024/03/01 05:43:22;;;;;;;30.13;18.23;;;3.90;97.20;;;;;;5084308;28;20085;-89
2024/03/01 05:45:48;;;;;;;33.50;18.77;;;4.00;97.20;;;;;;5087899;28;20020;-86
2024/03/01 05:48:16;;;;;;;34.75;19.52;;;4.10;97.20;;;;;;5084865;28;20114;-88
2024/03/01 05:50:42;;;;;;;31.13;19.35;;;4.10;97.10;;;;;;5089910;28;20027;-85
2024/03/01 05:53:14;;;;;;;29.95;19.13;;;4.10;97.10;;;;;;5090569;28;20020;-88
2024/03/01 05:55:40;;;;;;;33.70;20.45;;;4.20;97.00;;;;;;5087425;28;20071;-87
2024/03/01 05:58:07;;;;;;;35.80;21.23;;;4.20;96.90;;;;;;5073445;28;20059;-88
2024/03/01 06:00:33;;;;;;;37.92;20.42;;;4.20;96.80;;;;;;5075478;28;20025;-85
2024/03/01 06:02:59;;;;;;;29.40;18.73;;;4.20;96.80;;;;;;5080709;28;20028;-88
2024/03/01 06:05:25;;;;;;;33.25;20.65;;;4.20;96.90;;;;;;5094568;28;20105;-88
2024/03/01 06:07:51;;;;;;;40.30;22.60;;;4.30;96.90;;;;;;5089624;28;20703;-87
2024/03/01 06:10:17;;;;;;;31.92;21.48;;;4.30;96.90;;;;;;5090920;28;20040;-88
2024/03/01 06:12:43;;;;;;;30.50;19.15;;;4.30;96.80;;;;;;5085724;28;20012;-86
2024/03/01 06:15:09;;;;;;;34.58;20.15;;;4.30;96.80;;;;;;5095647;28;20032;-88
2024/03/01 06:17:35;;;;;;;32.55;20.23;;;4.40;96.90;;;;;;5101070;28;20531;-86
2024/03/01 06:20:03;;;;;;;34.10;20.23;;;4.40;96.80;;;;;;5097570;28;20148;-86
2024/03/01 06:22:32;;;;;;;34.45;20.17;;;4.40;96.70;;;;;;5094970;28;20469;-89
2024/03/01 06:24:58;;;;;;;34.63;20.45;;;4.30;96.70;;;;;;5097106;28;20070;-89
2024/03/01 06:27:24;;;;;;;32.42;19.17;;;4.30;96.80;;;;;;5095552;28;20449;-86
2024/03/01 06:29:50;;;;;;;37.88;19.35;;;4.30;96.80;;;;;;5095930;28;20043;-87
2024/03/01 06:32:16;;;;;;;31.98;19.38;;;4.30;96.90;;;;;;5097007;28;20107;-88
2024/03/01 06:34:42;;;;;;;31.70;21.52;;;4.40;96.90;;;;;;5086148;28;20354;-86
2024/03/01 06:37:08;;;;;;;31.10;18.98;;;4.40;96.80;;;;;;5098818;28;20047;-86
2024/03/01 06:39:34;;;;;;;34.35;20.48;;;4.50;96.70;;;;;;5090478;28;20025;-86
2024/03/01 06:42:04;;;;;;;31.05;20.58;;;4.50;96.50;;;;;;5105015;28;20073;-87
2024/03/01 06:44:30;;;;;;;35.80;21.95;;;4.60;96.60;;;;;;5093009;28;20047;-89
2024/03/01 06:46:56;;;;;;;43.92;22.35;;;4.60;96.60;;;;;;5085271;28;20103;-89
2024/03/01 06:49:22;;;;;;;32.22;21.67;;;4.60;96.40;;;;;;5095859;28;20024;-86
2024/03/01 06:51:48;;;;;;;29.98;21.27;;;4.60;96.40;;;;;;5088768;28;20016;-87
2024/03/01 06:54:14;;;;;;;30.60;22.23;;;4.60;96.40;;;;;;5099151;28;20477;-86
2024/03/01 06:56:41;;;;;;;30.65;20.25;;;4.60;96.50;;;;;;5101440;28;20016;-88
2024/03/01 06:59:07;;;;;;;37.63;22.58;;;4.60;96.40;;;;;;5110490;28;20024;-88
2024/03/01 07:01:34;;;;;;;36.42;22.05;;;4.70;96.30;;;;;;5109308;28;20035;-89
2024/03/01 07:04:00;;;;;;;32.42;21.40;;;4.60;96.40;;;;;;5104729;28;20100;-85
2024/03/01 07:06:27;;;;;;;36.17;20.67;;;4.60;96.50;;;;;;5092526;28;20135;-87
2024/03/01 07:08:56;;;;;;;37.73;24.63;;;4.70;96.50;;;;;;5093476;28;20114;-86
2024/03/01 07:11:22;;;;;;;40.47;22.88;;;4.70;96.50;;;;;;5095874;28;20075;-87
2024/03/01 07:13:53;;;;;;;34.75;21.92;;;4.70;96.40;;;;;;5090793;28;20051;-89
2024/03/01 07:16:22;;;;;;;32.33;21.05;;;4.70;96.40;;;;;;5090721;28;20028;-89
2024/03/01 07:18:51;;;;;;;32.53;22.85;;;4.70;96.50;;;;;;5097874;28;20024;-91
2024/03/01 07:21:17;;;;;;;31.77;19.48;;;4.80;96.50;;;;;;5096559;28;20020;-90
2024/03/01 07:23:45;;;;;;;36.35;21.17;;;4.80;96.50;;;;;;5094246;28;20036;-87
2024/03/01 07:26:11;;;;;;;36.38;20.92;;;4.90;96.40;;;;;;5105696;28;20028;-86
2024/03/01 07:28:40;;;;;;;41.33;22.45;;;4.80;96.40;;;;;;5097549;28;20047;-88
2024/03/01 07:31:06;;;;;;;34.88;21.52;;;4.90;96.40;;;;;;5098647;28;20472;-89
2024/03/01 07:33:32;;;;;;;37.72;19.38;;;4.90;96.20;;;;;;5087023;28;20036;-95
2024/03/01 07:36:02;;;;;;;32.50;20.48;;;4.80;96.30;;;;;;5103574;28;20448;-92
2024/03/01 07:38:28;;;;;;;37.67;20.70;;;4.90;96.30;;;;;;5091442;28;20047;-93
2024/03/01 07:40:57;;;;;;;34.83;21.13;;;5.00;96.30;;;;;;5082342;28;20092;-91
2024/03/01 07:43:25;;;;;;;33.45;20.17;;;5.00;96.10;;;;;;5097344;28;20059;-91
2024/03/01 07:45:51;;;;;;;41.53;21.83;;;5.00;96.10;;;;;;5097152;28;20020;-91
2024/03/01 07:48:17;;;;;;;38.03;22.48;;;5.10;96.10;;;;;;5086920;28;20377;-94
2024/03/01 07:50:44;;;;;;;39.83;23.05;;;5.20;96.20;;;;;;5102228;28;20074;-90
2024/03/01 07:53:10;;;;;;;38.42;22.98;;;5.40;96.00;;;;;;5095563;28;20032;-92
2024/03/01 07:55:36;;;;;;;44.63;23.95;;;5.50;95.80;;;;;;5099683;28;20069;-90
2024/03/01 07:58:02;;;;;;;32.90;24.67;;;5.60;95.60;;;;;;5109425;28;20024;-90
2024/03/01 08:00:30;;;;;;;41.40;23.70;;;5.60;95.30;;;;;;5103050;28;20062;-92
2024/03/01 08:03:09;;;;;;;30.83;22.92;;;5.70;95.10;;;;;;5098839;28;20024;-91
2024/03/01 08:05:39;;;;;;;37.00;25.05;;;5.70;94.80;;;;;;5083108;28;20026;-93
2024/03/01 08:08:10;;;;;;;32.50;24.25;;;5.70;94.90;;;;;;5095767;28;20365;-90
2024/03/01 08:10:41;;;;;;;36.50;25.05;;;5.70;94.90;;;;;;5097448;28;20020;-91
2024/03/01 08:13:07;;;;;;;35.30;23.85;;;5.90;94.80;;;;;;5082362;28;20031;-86
2024/03/01 08:15:36;;;;;;;35.33;22.58;;;6.00;94.60;;;;;;5098146;28;20024;-92
2024/03/01 08:18:21;;;;;;;39.13;24.92;;;6.00;94.30;;;;;;5094922;28;20120;-90
2024/03/01 08:24:06;;;;;;;39.50;23.90;;;6.10;94.20;;;;;;5094325;28;20061;-92
2024/03/01 08:26:32;;;;;;;44.22;25.48;;;6.10;94.10;;;;;;5104822;28;20026;-91
2024/03/01 08:29:00;;;;;;;31.67;22.85;;;6.20;94.10;;;;;;5109466;28;20432;-92
2024/03/01 08:31:33;;;;;;;35.05;22.92;;;6.20;93.90;;;;;;5095300;28;20515;-91
2024/03/01 08:34:05;;;;;;;41.17;25.02;;;6.20;93.70;;;;;;5105600;28;20032;-92
2024/03/01 08:36:31;;;;;;;42.38;26.23;;;6.20;93.80;;;;;;5090023;28;20017;-93
2024/03/01 08:39:05;;;;;;;36.88;27.77;;;6.10;93.70;;;;;;5096466;28;20047;-91
2024/03/01 08:41:32;;;;;;;39.05;25.42;;;6.10;93.70;;;;;;5080211;28;20056;-93
2024/03/01 08:44:40;;;;;;;39.85;27.75;;;6.10;93.80;;;;;;5085633;28;20041;-96
2024/03/01 08:47:29;;;;;;;41.83;26.10;;;6.10;93.70;;;;;;5048063;28;20051;-88
2024/03/01 08:49:56;;;;;;;35.25;26.33;;;6.00;93.70;;;;;;5072956;28;20037;-89
2024/03/01 08:52:40;;;;;;;42.15;24.42;;;6.00;93.80;;;;;;5077266;28;20052;-89
2024/03/01 08:55:21;;;;;;;37.47;26.10;;;6.00;93.90;;;;;;5061929;28;20088;-92
2024/03/01 08:57:50;;;;;;;40.28;28.15;;;5.80;93.90;;;;;;5064677;28;20448;-93
2024/03/01 09:00:38;;;;;;;43.42;28.48;;;5.70;94.00;;;;;;5073232;28;20028;-91
2024/03/01 09:03:05;;;;;;;43.03;26.00;;;5.80;94.10;;;;;;5070752;28;20036;-90
2024/03/01 09:05:34;;;;;;;44.83;28.77;;;5.80;94.00;;;;;;5070909;28;20021;-88
2024/03/01 09:08:00;;;;;;;44.30;28.73;;;5.80;94.00;;;;;;5073221;28;20036;-88
2024/03/01 09:10:57;;;;;;;39.35;26.80;;;5.80;93.90;;;;;;5079827;28;20028;-92
2024/03/01 09:13:25;;;;;;;40.95;27.60;;;5.70;94.10;;;;;;5062433;28;20029;-91
2024/03/01 09:15:51;;;;;;;37.05;27.42;;;5.80;94.10;;;;;;5069389;28;20032;-94
2024/03/01 09:18:42;;;;;;;39.97;25.88;;;5.80;94.10;;;;;;5044237;28;20023;-92
2024/03/01 09:21:30;;;;;;;44.35;28.90;;;5.90;94.00;;;;;;5092647;28;20071;-92
2024/03/01 09:23:57;;;;;;;44.28;28.52;;;5.80;94.00;;;;;;5104957;28;20067;-91
2024/03/01 09:26:24;;;;;;;38.28;28.20;;;5.90;93.90;;;;;;5102398;28;20013;-90
2024/03/01 09:29:32;;;;;;;48.53;32.70;;;6.00;93.70;;;;;;5095355;28;20024;-93
2024/03/01 09:31:59;;;;;;;45.03;26.33;;;6.00;93.60;;;;;;5090195;28;20071;-92
2024/03/01 09:34:30;;;;;;;;;;;6.00;93.40;;;;;;5107753;28;20020;-93
2024/03/01 09:36:56;;;;;;;36.97;25.63;;;6.00;93.50;;;;;;5107636;28;19968;-93
2024/03/01 09:39:22;;;;;;;35.13;24.33;;;6.00;93.30;;;;;;5096289;28;20095;-92
2024/03/01 09:42:09;;;;;;;39.88;26.38;;;6.00;93.00;;;;;;5098539;28;20032;-92
2024/03/01 09:45:19;;;;;;;40.65;27.65;;;6.10;93.00;;;;;;5118169;28;20043;-91
2024/03/01 09:48:29;;;;;;;41.28;29.67;;;6.20;93.00;;;;;;5040855;28;20034;-92
2024/03/01 09:51:17;;;;;;;45.72;28.23;;;6.40;92.70;;;;;;4968033;28;20047;-90
2024/03/01 09:53:42;;;;;;;;;;;6.60;92.50;;;;;;4963246;29;20023;-90
2024/03/01 09:56:20;;;;;;;38.65;26.35;;;6.80;92.40;;;;;;4974351;28;19917;-94
2024/03/01 10:07:22;;;;;;;39.47;25.95;;;8.40;90.40;;;;;;3381379;23;20054;-92
2024/03/01 10:10:22;;;;;;;35.42;25.73;;;8.80;89.10;;;;;;4979529;28;20082;-96
2024/03/01 10:13:04;;;;;;;38.17;27.35;;;8.50;87.40;;;;;;4952977;29;20041;-93
2024/03/01 10:16:12;;;;;;;42.65;26.40;;;8.30;88.40;;;;;;4969916;28;20078;-93
2024/03/01 10:22:21;;;;;;;42.00;27.50;;;8.30;88.30;;;;;;5027403;23;20512;-93
2024/03/01 10:25:19;;;;;;;35.05;27.67;;;8.10;88.00;;;;;;4920855;29;20044;-90
2024/03/01 10:27:51;;;;;;;42.25;25.20;;;7.80;88.60;;;;;;4855490;29;20050;-92
2024/03/01 10:30:30;;;;;;;38.13;26.63;;;7.50;88.50;;;;;;4856896;29;20042;-91
2024/03/01 10:33:07;;;;;;;44.45;26.02;;;7.00;89.90;;;;;;4843748;29;20176;-91
2024/03/01 10:35:54;;;;;;;35.80;25.67;;;7.00;90.30;;;;;;4859499;29;20086;-90
2024/03/01 10:38:23;;;;;;;42.47;27.85;;;7.20;90.30;;;;;;4851739;29;20038;-93
2024/03/01 10:41:13;;;;;;;33.78;23.35;;;7.30;89.90;;;;;;4853715;29;20041;-91
2024/03/01 10:43:58;;;;;;;36.30;23.02;;;7.10;89.10;;;;;;4838643;29;20432;-93
2024/03/01 10:46:36;;;;;;;42.00;26.35;;;6.90;90.20;;;;;;4843843;29;20094;-91
2024/03/01 10:49:21;;;;;;;39.10;26.40;;;7.00;90.30;;;;;;4841435;29;20465;-93
2024/03/01 10:51:53;;;;;;;41.78;25.10;;;7.20;90.20;;;;;;4858636;29;20091;-90
2024/03/01 10:54:20;;;;;;;36.97;24.00;;;7.20;89.30;;;;;;4843979;29;20365;-91
2024/03/01 10:56:49;;;;;;;41.17;26.73;;;7.00;90.00;;;;;;4845797;29;20026;-91
2024/03/01 11:00:41;;;;;;;37.28;24.83;;;6.90;90.20;;;;;;4865565;29;20038;-95
2024/03/01 11:03:29;;;;;;;42.72;28.92;;;7.00;90.10;;;;;;4932326;29;20043;-89
2024/03/01 11:06:12;;;;;;;40.28;26.35;;;7.10;90.00;;;;;;4976951;28;20451;-87
2024/03/01 11:08:56;;;;;;;41.47;25.85;;;7.20;90.10;;;;;;4978972;28;20064;-89
2024/03/01 11:11:42;;;;;;;43.05;28.20;;;7.40;89.90;;;;;;4998236;28;20026;-90
2024/03/01 11:14:13;;;;;;;42.15;28.92;;;7.40;89.30;;;;;;5002247;28;20026;-90
2024/03/01 11:16:42;;;;;;;53.28;31.77;;;7.40;89.70;;;;;;4997356;28;20056;-87
2024/03/01 11:19:12;;;;;;;51.45;32.85;;;7.40;89.40;;;;;;5009573;28;20027;-86
2024/03/01 11:21:48;;;;;;;35.78;26.80;;;7.50;89.30;;;;;;4997686;28;20062;-89
2024/03/01 11:24:26;;;;;;;43.28;29.35;;;7.40;88.90;;;;;;4998115;28;20038;-91
2024/03/01 11:26:55;;;;;;;45.63;30.55;;;7.30;89.50;;;;;;4977738;28;20079;-83
2024/03/01 11:29:35;;;;;;;46.40;30.55;;;7.30;89.40;;;;;;4958008;28;20058;-86
2024/03/01 11:32:16;;;;;;;46.35;30.88;;;7.30;89.50;;;;;;4977763;28;20023;-86
2024/03/01 11:34:59;;;;;;;43.70;32.55;;;7.20;89.60;;;;;;4995449;28;20024;-86
2024/03/01 11:38:02;;;;;;;46.25;31.27;;;7.10;90.00;;;;;;4986235;28;20036;-90
2024/03/01 11:40:37;;;;;;;43.40;27.25;;;7.00;90.10;;;;;;4995038;28;20086;-90
2024/03/01 11:43:26;;;;;;;42.08;27.83;;;6.90;90.30;;;;;;5001584;28;20029;-93
2024/03/01 11:46:12;;;;;;;47.60;32.10;;;6.70;90.60;;;;;;4986004;28;20026;-90
2024/03/01 11:49:16;;;;;;;47.90;31.60;;;6.60;91.00;;;;;;4983210;28;20011;-90
2024/03/01 11:51:54;;;;;;;50.47;31.60;;;6.60;91.00;;;;;;5026719;28;20014;-92
2024/03/01 11:54:40;;;;;;;48.60;29.60;;;6.60;91.00;;;;;;4996043;28;20057;-93
2024/03/01 11:57:36;;;;;;;52.63;30.50;;;6.60;90.80;;;;;;4992800;28;20033;-90
2024/03/01 12:00:27;;;;;;;45.00;30.95;;;6.50;90.90;;;;;;5010652;28;20041;-90
2024/03/01 12:03:17;;;;;;;41.72;31.98;;;6.50;91.10;;;;;;4995409;28;20066;-92
2024/03/01 12:05:56;;;;;;;50.30;33.67;;;6.50;91.00;;;;;;4990842;28;20022;-93
2024/03/01 12:08:34;;;;;;;54.35;36.67;;;6.40;91.20;;;;;;4987062;28;20037;-91
2024/03/01 12:11:22;;;;;;;50.35;32.67;;;6.40;91.20;;;;;;4986015;28;20113;-90
2024/03/01 12:13:58;;;;;;;49.28;32.80;;;6.40;91.20;;;;;;4969795;28;20023;-88
2024/03/01 12:16:54;;;;;;;48.58;34.83;;;6.40;91.30;;;;;;5000787;28;20029;-91
2024/03/01 12:19:45;;;;;;;53.67;34.28;;;6.40;91.30;;;;;;4975714;28;20046;-95
2024/03/01 12:22:17;;;;;;;62.72;38.00;;;6.30;91.30;;;;;;4998204;28;20047;-92
2024/03/01 12:25:39;;;;;;;45.88;31.70;;;6.30;91.50;;;;;;4997926;28;20066;-96
2024/03/01 12:29:09;;;;;;;45.65;33.95;;;6.30;91.60;;;;;;4960232;28;20058;-95
2024/03/01 12:32:01;;;;;;;53.65;35.50;;;6.30;91.40;;;;;;4908088;29;20514;-93
2024/03/01 12:34:53;;;;;;;45.78;34.83;;;6.20;91.40;;;;;;4899899;29;20021;-93
2024/03/01 12:38:08;;;;;;;49.83;33.55;;;6.20;91.60;;;;;;4893847;29;20456;-91
2024/03/01 12:40:52;;;;;;;58.10;36.45;;;6.10;91.50;;;;;;4906629;29;20052;-92
2024/03/01 12:43:34;;;;;;;52.22;36.85;;;5.90;91.80;;;;;;4902078;29;20065;-91
2024/03/01 12:46:01;;;;;;;54.53;37.83;;;5.80;92.00;;;;;;4905953;29;20044;-93
2024/03/01 12:48:37;;;;;;;71.22;38.58;;;5.80;92.20;;;;;;4900079;29;21132;-93
2024/03/01 12:51:16;;;;;;;55.72;36.65;;;5.90;92.30;;;;;;4908606;29;20035;-91
2024/03/01 12:54:04;;;;;;;50.55;39.03;;;5.90;92.20;;;;;;4911758;29;20069;-94
2024/03/01 12:56:53;;;;;;;64.95;39.45;;;6.00;92.20;;;;;;4900394;29;20032;-93
2024/03/01 12:59:40;;;;;;;55.88;38.47;;;6.00;92.20;;;;;;4899402;29;20039;-93
2024/03/01 13:02:16;;;;;;;56.72;38.03;;;6.00;92.30;;;;;;4889380;29;20028;-91
2024/03/01 13:04:58;;;;;;;58.00;39.60;;;6.00;92.20;;;;;;4910501;28;20035;-91
2024/03/01 13:07:28;;;;;;;62.33;37.10;;;6.10;92.20;;;;;;4970774;28;20023;-92
2024/03/01 13:10:23;;;;;;;60.15;37.55;;;6.10;92.30;;;;;;4975812;28;20030;-93
2024/03/01 13:18:37;;;;;;;59.22;38.15;;;6.10;92.20;;;;;;5347347;22;21250;-94
2024/03/01 13:27:33;;;;;;;63.25;41.22;;;6.00;92.30;;;;;;4979153;23;20067;-93
2024/03/01 13:30:07;;;;;;;62.92;39.72;;;6.00;92.40;;;;;;4954052;29;20015;-93